createdAt,value
2024-04-13T00:02:07.093Z,99.90
2024-04-13T00:07:08.976Z,99.90
2024-04-13T00:12:10.816Z,99.90
2024-04-13T00:17:12.618Z,99.90
2024-04-13T00:22:15.706Z,99.90
2024-04-13T00:27:17.874Z,99.90
2024-04-13T00:32:20.552Z,99.90
2024-04-13T00:37:22.942Z,99.90
2024-04-13T00:42:24.956Z,99.90
2024-04-13T00:47:27.412Z,99.90
2024-04-13T00:52:30.158Z,99.90
2024-04-13T00:57:32.336Z,99.90
2024-04-13T01:02:35.027Z,99.90
2024-04-13T01:07:36.990Z,99.90
2024-04-13T01:12:41.696Z,99.90
2024-04-13T01:17:45.126Z,99.90
2024-04-13T01:22:48.807Z,99.90
2024-04-13T01:27:50.697Z,99.90
2024-04-13T01:32:53.324Z,99.90
2024-04-13T01:37:55.194Z,99.90
2024-04-13T01:42:57.049Z,99.90
2024-04-13T01:47:58.998Z,99.90
2024-04-13T01:53:01.048Z,99.90
2024-04-13T01:58:03.028Z,99.90
2024-04-13T02:03:05.218Z,99.90
2024-04-13T02:08:08.098Z,99.90
2024-04-13T02:13:10.152Z,99.90
2024-04-13T02:18:12.102Z,99.90
2024-04-13T02:23:14.215Z,99.90
2024-04-13T02:28:16.035Z,99.90
2024-04-13T02:33:17.954Z,99.90
2024-04-13T02:38:19.846Z,99.90
2024-04-13T02:43:21.950Z,99.90
2024-04-13T02:48:23.819Z,99.90
2024-04-13T02:53:25.772Z,99.90
2024-04-13T02:58:27.625Z,99.90
2024-04-13T03:03:29.815Z,99.90
2024-04-13T03:08:32.426Z,99.90
2024-04-13T03:20:11.283Z,99.90
2024-04-13T03:25:13.114Z,99.90
2024-04-13T03:30:15.020Z,99.90
2024-04-13T03:35:16.914Z,99.90
2024-04-13T03:40:18.709Z,99.90
2024-04-13T03:45:20.515Z,99.90
2024-04-13T03:50:22.440Z,99.90
2024-04-13T03:55:24.299Z,99.90
2024-04-13T04:00:26.237Z,99.90
2024-04-13T04:05:28.847Z,99.90
2024-04-13T04:10:30.758Z,99.90
2024-04-13T04:15:33.802Z,99.90
2024-04-13T04:20:35.744Z,99.90
2024-04-13T04:25:37.562Z,99.90
2024-04-13T04:30:39.501Z,99.90
2024-04-13T04:35:41.342Z,99.90
2024-04-13T04:40:43.195Z,99.90
2024-04-13T04:45:45.473Z,99.90
2024-04-13T04:50:59.016Z,99.90
2024-04-13T04:56:00.921Z,99.90
2024-04-13T05:01:04.270Z,99.90
2024-04-13T05:06:06.726Z,99.90
2024-04-13T05:11:09.324Z,99.90
2024-04-13T05:16:11.314Z,99.90
2024-04-13T05:21:13.135Z,99.90
2024-04-13T05:26:14.968Z,99.90
2024-04-13T05:31:16.875Z,99.90
2024-04-13T05:36:18.744Z,99.90
2024-04-13T05:41:20.567Z,99.90
2024-04-13T05:46:22.429Z,99.90
2024-04-13T05:51:24.220Z,99.90
2024-04-13T05:56:26.494Z,99.90
2024-04-13T06:01:29.838Z,99.90
2024-04-13T06:06:31.804Z,99.90
2024-04-13T06:11:33.649Z,99.90
2024-04-13T06:16:35.636Z,99.90
2024-04-13T06:21:37.606Z,99.90
2024-04-13T06:26:39.393Z,99.90
2024-04-13T06:31:41.216Z,99.90
2024-04-13T06:36:43.716Z,99.90
2024-04-13T06:41:45.657Z,99.90
2024-04-13T06:46:47.495Z,99.90
2024-04-13T06:51:49.815Z,99.90
2024-04-13T06:56:51.841Z,99.90
2024-04-13T07:01:53.710Z,99.90
2024-04-13T07:06:55.888Z,99.90
2024-04-13T07:11:57.783Z,99.90
2024-04-13T07:16:59.650Z,99.90
2024-04-13T07:22:01.480Z,99.90
2024-04-13T07:27:03.453Z,99.90
2024-04-13T07:32:05.627Z,99.90
2024-04-13T07:37:07.452Z,99.90
2024-04-13T07:42:10.168Z,99.90
2024-04-13T07:53:46.165Z,99.90
2024-04-13T07:58:48.098Z,99.90
2024-04-13T08:03:50.056Z,99.90
2024-04-13T08:08:51.952Z,99.90
2024-04-13T08:13:54.121Z,99.90
2024-04-13T08:18:55.942Z,99.90
2024-04-13T08:23:57.857Z,99.90
2024-04-13T08:28:59.940Z,99.90
2024-04-13T08:34:01.812Z,99.90
2024-04-13T08:39:04.239Z,99.90
2024-04-13T08:44:08.764Z,99.90
2024-04-13T08:49:14.716Z,99.90
2024-04-13T08:54:17.651Z,99.90
2024-04-13T08:59:29.986Z,99.90
2024-04-13T09:04:33.680Z,99.90
2024-04-13T09:09:36.130Z,99.90
2024-04-13T09:14:38.512Z,99.90
2024-04-13T09:19:40.336Z,99.90
2024-04-13T09:24:45.707Z,99.90
2024-04-13T09:29:48.412Z,99.90
2024-04-13T09:34:50.316Z,99.90
2024-04-13T09:40:01.769Z,99.90
2024-04-13T09:45:05.478Z,99.90
2024-04-13T09:50:07.838Z,99.90
2024-04-13T09:55:11.261Z,99.90
2024-04-13T10:00:16.796Z,99.90
2024-04-13T10:05:20.123Z,99.90
2024-04-13T10:10:24.190Z,99.90
2024-04-13T10:15:26.413Z,99.90
2024-04-13T10:20:29.219Z,99.90
2024-04-13T10:25:32.357Z,99.90
2024-04-13T10:30:59.480Z,99.90
2024-04-13T10:36:06.825Z,99.90
2024-04-13T10:41:08.792Z,99.90
2024-04-13T10:46:13.344Z,99.90
2024-04-13T10:51:15.452Z,99.90
2024-04-13T10:56:18.282Z,99.30
2024-04-13T11:01:20.450Z,99.30
2024-04-13T11:06:22.684Z,97.20
2024-04-13T11:11:26.983Z,96.20
2024-04-13T11:22:51.567Z,95.50
2024-04-13T11:34:30.385Z,92.60
2024-04-13T11:39:35.828Z,93.10
2024-04-13T11:44:41.035Z,93.90
2024-04-13T11:49:43.764Z,92.80
2024-04-13T11:54:47.510Z,92.00
2024-04-13T11:59:49.948Z,90.10
2024-04-13T12:04:51.842Z,90.90
2024-04-13T12:09:53.771Z,89.60
2024-04-13T12:14:55.906Z,89.80
2024-04-13T12:19:58.949Z,88.30
2024-04-13T12:25:01.392Z,85.70
2024-04-13T12:30:04.896Z,84.00
2024-04-13T12:35:09.193Z,85.90
2024-04-13T12:40:11.221Z,87.10
2024-04-13T12:45:13.124Z,83.80
2024-04-13T12:50:14.929Z,86.10
2024-04-13T12:55:16.754Z,84.90
2024-04-13T13:00:18.688Z,83.10
2024-04-13T13:05:20.701Z,82.50
2024-04-13T13:10:22.518Z,86.50
2024-04-13T13:15:24.420Z,83.30
2024-04-13T13:20:26.493Z,82.00
2024-04-13T13:25:28.327Z,83.30
2024-04-13T13:30:35.693Z,82.20
2024-04-13T13:35:37.720Z,84.10
2024-04-13T13:40:39.623Z,85.20
2024-04-13T13:45:42.005Z,83.80
2024-04-13T13:50:43.876Z,83.40
2024-04-13T13:55:45.737Z,81.00
2024-04-13T14:00:47.800Z,83.70
2024-04-13T14:05:49.636Z,83.40
2024-04-13T14:10:51.505Z,81.60
2024-04-13T14:15:53.791Z,79.10
2024-04-13T14:21:00.067Z,78.00
2024-04-13T14:26:03.344Z,76.40
2024-04-13T14:31:05.174Z,77.50
2024-04-13T14:36:07.144Z,82.00
2024-04-13T14:41:08.966Z,77.70
2024-04-13T14:46:10.993Z,75.90
2024-04-13T14:51:12.825Z,77.10
2024-04-13T14:56:14.726Z,81.60
2024-04-13T15:01:16.619Z,82.00
2024-04-13T15:06:18.547Z,83.60
2024-04-13T15:11:20.507Z,81.90
2024-04-13T15:16:24.877Z,79.70
2024-04-13T15:21:27.190Z,83.60
2024-04-13T15:26:29.093Z,77.80
2024-04-13T15:31:30.902Z,77.30
2024-04-13T15:36:32.947Z,79.60
2024-04-13T15:41:34.898Z,75.90
2024-04-13T15:46:36.738Z,75.50
2024-04-13T15:51:38.671Z,77.00
2024-04-13T15:56:43.032Z,77.90
2024-04-13T16:01:45.492Z,77.80
2024-04-13T16:06:54.112Z,77.90
2024-04-13T16:11:56.117Z,78.60
2024-04-13T16:16:58.575Z,77.30
2024-04-13T16:22:06.000Z,78.00
2024-04-13T16:27:07.856Z,77.80
2024-04-13T16:32:10.857Z,77.90
2024-04-13T16:37:12.682Z,78.30
2024-04-13T16:42:14.579Z,79.30
2024-04-13T16:47:17.682Z,81.20
2024-04-13T16:52:19.787Z,75.80
2024-04-13T16:57:21.639Z,75.70
2024-04-13T17:02:23.478Z,74.10
2024-04-13T17:07:25.528Z,83.20
2024-04-13T17:12:27.364Z,83.50
2024-04-13T17:17:29.720Z,82.30
2024-04-13T17:22:31.624Z,87.40
2024-04-13T17:27:34.649Z,87.80
2024-04-13T17:32:36.597Z,89.40
2024-04-13T17:37:38.565Z,90.30
2024-04-13T17:42:40.438Z,91.60
2024-04-13T17:47:42.525Z,92.50
2024-04-13T17:52:44.438Z,94.10
2024-04-13T17:57:46.307Z,94.80
2024-04-13T18:02:48.243Z,96.40
2024-04-13T18:07:50.050Z,96.90
2024-04-13T18:12:52.309Z,97.40
2024-04-13T18:17:55.184Z,97.80
2024-04-13T18:22:57.137Z,98.10
2024-04-13T18:27:59.058Z,97.70
2024-04-13T18:33:01.009Z,97.90
2024-04-13T18:38:02.912Z,98.30
2024-04-13T18:43:05.589Z,98.80
2024-04-13T18:48:08.128Z,98.70
2024-04-13T18:53:10.427Z,98.40
2024-04-13T18:58:12.237Z,97.70
2024-04-13T19:03:14.406Z,98.00
2024-04-13T19:08:18.231Z,98.20
2024-04-13T19:13:20.084Z,98.30
2024-04-13T19:18:22.054Z,97.10
2024-04-13T19:23:24.686Z,97.00
2024-04-13T19:28:27.626Z,96.10
2024-04-13T19:33:30.324Z,96.80
2024-04-13T19:38:32.388Z,96.60
2024-04-13T19:43:34.811Z,97.30
2024-04-13T19:48:36.865Z,97.00
2024-04-13T19:53:39.132Z,97.20
2024-04-13T19:58:40.962Z,97.60
2024-04-13T20:03:42.953Z,96.80
2024-04-13T20:08:45.759Z,96.30
2024-04-13T20:13:47.650Z,97.10
2024-04-13T20:18:52.937Z,97.70
2024-04-13T20:23:54.934Z,97.40
2024-04-13T20:28:57.447Z,96.70
2024-04-13T20:33:59.579Z,96.80
2024-04-13T20:39:01.699Z,97.00
2024-04-13T20:44:05.825Z,96.80
2024-04-13T20:49:08.493Z,95.90
2024-04-13T20:54:11.027Z,96.70
2024-04-13T20:59:14.078Z,97.20
2024-04-13T21:04:16.521Z,98.40
2024-04-13T21:09:18.502Z,99.50
2024-04-13T21:14:20.982Z,99.90
2024-04-13T21:19:23.783Z,99.90
2024-04-13T21:24:26.511Z,99.90
2024-04-13T21:29:28.888Z,99.90
2024-04-13T21:34:33.941Z,99.90
2024-04-13T21:39:35.901Z,99.90
2024-04-13T21:44:37.743Z,99.90
2024-04-13T21:49:39.607Z,99.90
2024-04-13T21:54:42.017Z,99.90
2024-04-13T21:59:45.897Z,99.90
2024-04-13T22:04:47.832Z,99.90
2024-04-13T22:09:50.078Z,99.90
2024-04-13T22:14:51.969Z,99.90
2024-04-13T22:19:53.825Z,99.90
2024-04-13T22:24:55.823Z,99.90
2024-04-13T22:29:59.475Z,99.90
2024-04-13T22:35:01.291Z,99.90
2024-04-13T22:40:03.920Z,99.90
2024-04-13T22:45:06.518Z,99.90
2024-04-13T22:50:08.485Z,99.90
2024-04-13T22:55:11.002Z,99.90
2024-04-13T23:00:13.265Z,99.90
2024-04-13T23:05:15.139Z,99.90
2024-04-13T23:10:17.007Z,99.90
2024-04-13T23:15:19.013Z,99.90
2024-04-13T23:20:21.072Z,99.90
2024-04-13T23:25:23.746Z,99.90
2024-04-13T23:30:25.572Z,99.90
2024-04-13T23:35:27.420Z,99.90
2024-04-13T23:40:30.107Z,99.90
2024-04-13T23:45:31.967Z,99.90
2024-04-13T23:50:33.818Z,99.90
2024-04-13T23:55:37.925Z,99.90
